createdAt,value
2023-04-18T00:00:58.034Z,25.59
2023-04-18T00:01:58.095Z,27.50
2023-04-18T00:02:58.822Z,29.11
2023-04-18T00:03:58.332Z,28.33
2023-04-18T00:04:58.230Z,27.08
2023-04-18T00:05:58.258Z,31.50
2023-04-18T00:06:58.347Z,28.68
2023-04-18T00:07:58.486Z,30.49
2023-04-18T00:08:58.436Z,28.61
2023-04-18T00:09:58.456Z,28.62
2023-04-18T00:10:58.482Z,26.87
2023-04-18T00:11:58.580Z,33.70
2023-04-18T00:12:58.589Z,30.77
2023-04-18T00:13:58.617Z,29.25
2023-04-18T00:14:58.761Z,26.49
2023-04-18T00:15:58.718Z,31.59
2023-04-18T00:16:58.858Z,30.50
2023-04-18T00:17:58.901Z,28.87
2023-04-18T00:18:58.878Z,30.30
2023-04-18T00:19:58.955Z,29.49
2023-04-18T00:20:58.988Z,29.27
2023-04-18T00:21:59.014Z,28.02
2023-04-18T00:22:59.057Z,27.14
2023-04-18T00:23:59.110Z,28.19
2023-04-18T00:24:59.170Z,31.38
2023-04-18T00:25:59.234Z,32.04
2023-04-18T00:26:59.289Z,31.78
2023-04-18T00:27:59.308Z,30.52
2023-04-18T00:28:59.362Z,28.18
2023-04-18T00:29:59.411Z,26.86
2023-04-18T00:30:59.490Z,30.25
2023-04-18T00:31:59.564Z,27.05
2023-04-18T00:32:59.570Z,29.23
2023-04-18T00:33:59.634Z,27.10
2023-04-18T00:34:59.669Z,27.41
2023-04-18T00:35:59.700Z,28.91
2023-04-18T00:36:59.789Z,28.28
2023-04-18T00:37:59.817Z,28.08
2023-04-18T00:38:59.852Z,27.77
2023-04-18T00:39:59.905Z,28.93
2023-04-18T00:40:59.952Z,27.68
2023-04-18T00:42:00.024Z,27.54
2023-04-18T00:43:00.055Z,29.95
2023-04-18T00:44:00.103Z,31.99
2023-04-18T00:45:00.233Z,31.12
2023-04-18T00:46:00.245Z,31.06
2023-04-18T00:47:00.248Z,29.05
2023-04-18T00:48:00.424Z,31.05
2023-04-18T00:49:00.377Z,32.77
2023-04-18T00:50:00.442Z,33.56
2023-04-18T00:51:00.477Z,29.62
2023-04-18T00:52:00.533Z,28.05
2023-04-18T00:53:00.580Z,30.52
2023-04-18T00:54:00.609Z,30.88
2023-04-18T00:55:00.676Z,29.43
2023-04-18T00:56:00.735Z,27.76
2023-04-18T00:57:00.792Z,27.01
2023-04-18T00:58:00.834Z,30.27
2023-04-18T00:59:00.894Z,30.07
2023-04-18T01:00:00.907Z,31.08
2023-04-18T01:01:00.948Z,30.44
2023-04-18T01:02:01.131Z,29.11
2023-04-18T01:03:01.184Z,29.86
2023-04-18T01:04:01.224Z,32.13
2023-04-18T01:05:01.158Z,31.94
2023-04-18T01:06:01.208Z,29.51
2023-04-18T01:07:01.288Z,32.37
2023-04-18T01:08:01.430Z,31.70
2023-04-18T01:09:01.377Z,31.04
2023-04-18T01:10:01.436Z,35.15
2023-04-18T01:11:01.434Z,33.03
2023-04-18T01:12:01.483Z,32.08
2023-04-18T01:13:01.454Z,29.53
2023-04-18T01:14:01.541Z,29.67
2023-04-18T01:15:01.541Z,30.04
2023-04-18T01:16:01.491Z,31.13
2023-04-18T01:17:01.483Z,26.22
2023-04-18T01:18:01.562Z,29.35
2023-04-18T01:19:01.480Z,28.19
2023-04-18T01:20:01.535Z,30.05
2023-04-18T01:21:01.516Z,26.05
2023-04-18T01:22:01.530Z,29.68
2023-04-18T01:23:01.553Z,29.92
2023-04-18T01:24:01.537Z,29.32
2023-04-18T01:25:01.516Z,32.10
2023-04-18T01:26:01.556Z,28.52
2023-04-18T01:27:01.590Z,25.19
2023-04-18T01:28:01.555Z,32.61
2023-04-18T01:29:01.572Z,25.00
2023-04-18T01:30:01.514Z,27.30
2023-04-18T01:31:01.598Z,32.85
2023-04-18T01:32:01.575Z,28.04
2023-04-18T01:33:01.634Z,29.37
2023-04-18T01:34:01.647Z,27.33
2023-04-18T01:35:01.749Z,33.49
2023-04-18T01:36:01.732Z,31.18
2023-04-18T01:37:01.820Z,34.35
2023-04-18T01:38:01.894Z,31.72
2023-04-18T01:39:01.912Z,35.73
2023-04-18T01:40:01.966Z,32.62
2023-04-18T01:41:01.977Z,30.95
2023-04-18T01:42:02.127Z,30.65
2023-04-18T01:43:02.141Z,33.92
2023-04-18T01:44:02.158Z,35.44
2023-04-18T01:45:02.199Z,31.25
2023-04-18T01:46:02.245Z,34.23
2023-04-18T01:47:02.524Z,33.31
2023-04-18T01:48:02.403Z,28.75
2023-04-18T01:49:02.421Z,30.20
2023-04-18T01:50:02.452Z,27.49
2023-04-18T01:51:02.551Z,29.63
2023-04-18T01:52:02.558Z,32.60
2023-04-18T01:53:02.614Z,28.36
2023-04-18T01:54:02.686Z,27.64
2023-04-18T01:55:02.735Z,27.77
2023-04-18T01:56:02.762Z,25.65
2023-04-18T01:57:02.821Z,27.02
2023-04-18T01:58:02.858Z,31.39
2023-04-18T01:59:02.930Z,31.96
2023-04-18T02:00:03.011Z,28.70
2023-04-18T02:01:03.039Z,29.55
2023-04-18T02:02:03.261Z,29.16
2023-04-18T02:03:03.227Z,28.78
2023-04-18T02:04:03.242Z,30.76
2023-04-18T02:05:03.218Z,24.71
2023-04-18T02:06:03.281Z,29.42
2023-04-18T02:07:03.334Z,30.43
2023-04-18T02:08:03.400Z,31.57
2023-04-18T02:09:03.421Z,33.41
2023-04-18T02:10:03.503Z,34.24
2023-04-18T02:11:03.554Z,34.97
2023-04-18T02:12:03.567Z,31.19
2023-04-18T02:13:03.578Z,34.00
2023-04-18T02:14:03.562Z,30.11
2023-04-18T02:15:03.570Z,34.14
2023-04-18T02:16:03.612Z,28.66
2023-04-18T02:17:03.600Z,32.45
2023-04-18T02:18:03.649Z,31.03
2023-04-18T02:19:03.592Z,34.43
2023-04-18T02:20:03.591Z,33.35
2023-04-18T02:21:03.560Z,32.42
2023-04-18T02:22:03.560Z,31.36
2023-04-18T02:23:03.585Z,31.13
2023-04-18T02:24:03.555Z,29.39
2023-04-18T02:25:03.569Z,31.25
2023-04-18T02:26:03.549Z,29.73
2023-04-18T02:27:03.546Z,30.09
2023-04-18T02:28:03.567Z,28.67
2023-04-18T02:29:03.562Z,27.95
2023-04-18T02:30:03.547Z,29.78
2023-04-18T02:31:03.530Z,26.57
2023-04-18T02:32:03.612Z,28.63
2023-04-18T02:33:03.676Z,25.43
2023-04-18T02:34:03.620Z,29.62
2023-04-18T02:35:03.673Z,30.48
2023-04-18T02:36:03.739Z,28.85
2023-04-18T02:37:03.764Z,27.10
2023-04-18T02:38:03.800Z,25.00
2023-04-18T02:39:03.820Z,26.71
2023-04-18T02:40:03.878Z,30.81
2023-04-18T02:41:03.903Z,28.56
2023-04-18T02:42:03.952Z,27.18
2023-04-18T02:43:04.009Z,26.72
2023-04-18T02:44:04.064Z,30.97
2023-04-18T02:45:04.077Z,29.57
2023-04-18T02:46:04.141Z,27.64
2023-04-18T02:47:04.127Z,26.63
2023-04-18T02:48:04.175Z,28.18
2023-04-18T02:49:04.145Z,29.06
2023-04-18T02:50:04.192Z,30.36
2023-04-18T02:51:04.223Z,28.54
2023-04-18T02:52:04.236Z,30.84
2023-04-18T02:53:04.240Z,28.74
2023-04-18T02:54:04.262Z,32.67
2023-04-18T02:55:04.256Z,30.20
2023-04-18T02:56:04.358Z,28.86
2023-04-18T02:57:04.284Z,30.03
2023-04-18T02:58:04.305Z,30.18
2023-04-18T02:59:04.327Z,30.34
2023-04-18T03:00:04.334Z,30.88
2023-04-18T03:01:04.389Z,31.07
2023-04-18T03:02:04.427Z,27.15
2023-04-18T03:03:04.557Z,29.79
2023-04-18T03:04:04.511Z,32.67
2023-04-18T03:05:04.668Z,34.08
2023-04-18T03:06:04.585Z,31.07
2023-04-18T03:07:04.661Z,33.45
2023-04-18T03:08:04.738Z,30.51
2023-04-18T03:09:04.812Z,31.79
2023-04-18T03:10:04.820Z,31.14
2023-04-18T03:11:04.855Z,28.63
2023-04-18T03:12:04.874Z,33.33
2023-04-18T03:13:04.871Z,32.88
2023-04-18T03:14:04.838Z,30.07
2023-04-18T03:15:04.870Z,31.79
2023-04-18T03:16:04.921Z,29.53
2023-04-18T03:17:04.884Z,28.24
2023-04-18T03:18:04.915Z,28.22
2023-04-18T03:19:04.856Z,26.88
2023-04-18T03:20:04.883Z,28.83
2023-04-18T03:21:04.891Z,27.64
2023-04-18T03:22:04.922Z,27.08
2023-04-18T03:23:04.926Z,27.68
2023-04-18T03:24:04.939Z,28.86
2023-04-18T03:25:04.945Z,29.00
2023-04-18T03:26:04.928Z,27.93
2023-04-18T03:27:04.951Z,27.70
2023-04-18T03:28:05.074Z,29.39
2023-04-18T03:29:04.984Z,29.07
2023-04-18T03:30:04.986Z,26.43
2023-04-18T03:31:05.095Z,26.68
2023-04-18T03:32:05.108Z,26.60
2023-04-18T03:33:05.198Z,30.07
2023-04-18T03:34:05.211Z,26.70
2023-04-18T03:35:05.266Z,30.64
2023-04-18T03:36:05.307Z,29.03
2023-04-18T03:37:05.324Z,30.92
2023-04-18T03:38:05.377Z,29.41
2023-04-18T03:39:05.400Z,28.01
2023-04-18T03:40:05.406Z,29.36
2023-04-18T03:41:05.407Z,27.62
2023-04-18T03:42:05.390Z,28.05
2023-04-18T03:43:05.409Z,30.24
2023-04-18T03:44:05.397Z,27.59
2023-04-18T03:45:05.357Z,27.62
2023-04-18T03:46:05.482Z,28.61
2023-04-18T03:47:05.389Z,30.90
2023-04-18T03:48:05.366Z,26.95
2023-04-18T03:49:05.376Z,27.91
2023-04-18T03:50:05.390Z,27.56
2023-04-18T03:51:05.325Z,26.21
2023-04-18T03:52:05.360Z,26.49
2023-04-18T03:53:05.357Z,27.47
2023-04-18T03:54:05.385Z,27.42
2023-04-18T03:55:05.356Z,28.81
2023-04-18T03:56:05.388Z,30.38
2023-04-18T03:57:05.378Z,27.58
2023-04-18T03:58:05.364Z,28.77
2023-04-18T03:59:05.377Z,27.32
2023-04-18T04:00:05.371Z,31.58
2023-04-18T04:01:05.368Z,30.40
2023-04-18T04:02:05.504Z,28.78
2023-04-18T04:03:05.577Z,28.57
2023-04-18T04:04:05.480Z,29.46
2023-04-18T04:05:05.462Z,28.08
2023-04-18T04:06:05.389Z,30.44
2023-04-18T04:07:05.408Z,27.08
2023-04-18T04:08:05.383Z,28.21
2023-04-18T04:09:05.384Z,26.63
2023-04-18T04:10:05.405Z,27.40
2023-04-18T04:11:05.399Z,28.97
2023-04-18T04:12:05.452Z,29.13
2023-04-18T04:13:05.452Z,31.60
2023-04-18T04:14:05.454Z,29.37
2023-04-18T04:15:05.466Z,27.35
2023-04-18T04:16:05.490Z,27.21
2023-04-18T04:17:05.543Z,32.83
2023-04-18T04:18:05.544Z,30.67
2023-04-18T04:19:05.555Z,29.83
2023-04-18T04:20:05.582Z,30.76
2023-04-18T04:21:05.617Z,29.88
2023-04-18T04:22:05.643Z,26.85
2023-04-18T04:23:05.669Z,28.65
2023-04-18T04:24:05.717Z,27.16
2023-04-18T04:25:05.727Z,28.28
2023-04-18T04:26:05.737Z,26.46
2023-04-18T04:27:05.772Z,25.60
2023-04-18T04:28:05.821Z,29.99
2023-04-18T04:29:05.854Z,30.23
2023-04-18T04:30:05.871Z,28.29
2023-04-18T04:31:05.907Z,27.02
2023-04-18T04:32:05.953Z,30.23
2023-04-18T04:33:06.035Z,27.87
2023-04-18T04:34:06.005Z,29.55
2023-04-18T04:35:06.042Z,28.93
2023-04-18T04:36:06.057Z,28.04
2023-04-18T04:37:06.110Z,26.56
2023-04-18T04:38:06.133Z,26.52
2023-04-18T04:39:06.141Z,29.38
2023-04-18T04:40:06.180Z,27.54
2023-04-18T04:41:06.227Z,30.19
2023-04-18T04:42:06.272Z,26.93
2023-04-18T04:43:06.276Z,29.50
2023-04-18T04:44:06.290Z,26.18
2023-04-18T04:45:06.386Z,29.38
2023-04-18T04:46:06.416Z,28.60
2023-04-18T04:47:06.373Z,29.42
2023-04-18T04:48:06.436Z,28.72
2023-04-18T04:49:06.419Z,28.95
2023-04-18T04:50:06.397Z,29.11
2023-04-18T04:51:06.435Z,28.79
2023-04-18T04:52:06.435Z,28.52
2023-04-18T04:53:06.477Z,25.57
2023-04-18T04:54:06.503Z,30.40
2023-04-18T04:55:06.512Z,28.09
2023-04-18T04:56:06.531Z,30.88
2023-04-18T04:57:06.566Z,27.16
2023-04-18T04:58:06.571Z,27.20
2023-04-18T04:59:06.591Z,30.01
2023-04-18T05:00:06.600Z,29.15
2023-04-18T05:01:13.690Z,28.53
2023-04-18T05:02:06.698Z,29.01
2023-04-18T05:03:06.712Z,29.62
2023-04-18T05:04:06.746Z,30.64
2023-04-18T05:05:06.649Z,31.37
2023-04-18T05:06:06.599Z,31.43
2023-04-18T05:07:06.609Z,32.21
2023-04-18T05:08:06.624Z,31.96
2023-04-18T05:09:06.595Z,30.98
2023-04-18T05:10:06.585Z,29.85
2023-04-18T05:11:06.589Z,28.08
2023-04-18T05:12:06.571Z,26.42
2023-04-18T05:13:06.556Z,32.13
2023-04-18T05:14:06.555Z,28.05
2023-04-18T05:15:06.568Z,28.72
2023-04-18T05:16:06.550Z,27.48
2023-04-18T05:17:06.563Z,29.69
2023-04-18T05:18:06.556Z,25.00
2023-04-18T05:19:06.537Z,27.90
2023-04-18T05:20:06.536Z,29.35
2023-04-18T05:21:06.547Z,26.36
2023-04-18T05:22:06.503Z,29.18
2023-04-18T05:23:06.516Z,28.45
2023-04-18T05:24:06.512Z,26.46
2023-04-18T05:25:06.495Z,27.91
2023-04-18T05:26:06.467Z,28.24
2023-04-18T05:27:06.481Z,25.84
2023-04-18T05:28:06.492Z,26.75
2023-04-18T05:29:06.476Z,26.99
2023-04-18T05:30:06.461Z,26.90
2023-04-18T05:31:06.475Z,26.77
2023-04-18T05:32:06.429Z,29.01
2023-04-18T05:33:06.892Z,29.16
2023-04-18T05:34:06.426Z,30.97
2023-04-18T05:35:06.428Z,29.19
2023-04-18T05:36:06.428Z,25.57
2023-04-18T05:37:06.420Z,23.97
2023-04-18T05:38:06.848Z,26.43
2023-04-18T05:39:06.398Z,28.27
2023-04-18T05:40:06.397Z,50.38
2023-04-18T05:41:06.401Z,34.56
2023-04-18T05:42:06.401Z,41.28
2023-04-18T05:43:06.374Z,34.55
2023-04-18T05:44:06.351Z,25.40
2023-04-18T05:45:06.357Z,31.56
2023-04-18T05:46:13.390Z,35.17
2023-04-18T05:47:06.644Z,35.24
2023-04-18T05:48:06.367Z,29.62
2023-04-18T05:49:06.951Z,44.75
2023-04-18T05:50:06.343Z,62.62
2023-04-18T05:51:06.323Z,90.03
2023-04-18T05:52:06.299Z,94.86
2023-04-18T05:53:06.306Z,92.06
2023-04-18T05:54:06.371Z,89.76
2023-04-18T05:55:06.298Z,86.86
2023-04-18T05:56:06.273Z,91.62
2023-04-18T05:57:06.323Z,87.35
2023-04-18T05:58:06.310Z,84.64
2023-04-18T05:59:06.278Z,79.07
2023-04-18T06:00:06.272Z,87.31
2023-04-18T06:01:06.310Z,91.13
2023-04-18T06:02:06.308Z,88.84
2023-04-18T06:03:08.541Z,97.72
2023-04-18T06:04:06.369Z,98.04
2023-04-18T06:05:06.464Z,99.20
2023-04-18T06:06:06.229Z,100.26
2023-04-18T06:07:06.229Z,105.52
2023-04-18T06:08:06.303Z,108.40
2023-04-18T06:09:06.236Z,113.11
2023-04-18T06:10:06.203Z,114.79
2023-04-18T06:11:06.192Z,117.20
2023-04-18T06:12:06.203Z,123.43
2023-04-18T06:13:06.152Z,135.28
2023-04-18T06:14:06.141Z,140.25
2023-04-18T06:15:06.158Z,140.41
2023-04-18T06:16:06.238Z,148.69
2023-04-18T06:17:06.157Z,157.93
2023-04-18T06:18:06.186Z,162.73
2023-04-18T06:19:06.174Z,166.29
2023-04-18T06:20:06.141Z,169.55
2023-04-18T06:21:06.101Z,178.49
2023-04-18T06:22:06.119Z,180.01
2023-04-18T06:23:06.112Z,186.10
2023-04-18T06:24:06.116Z,195.39
2023-04-18T06:25:06.137Z,201.02
2023-04-18T06:26:06.106Z,208.86
2023-04-18T06:27:06.049Z,220.37
2023-04-18T06:28:06.113Z,226.91
2023-04-18T06:29:06.038Z,233.66
2023-04-18T06:30:06.031Z,238.03
2023-04-18T06:31:06.060Z,245.93
2023-04-18T06:32:06.037Z,250.23
2023-04-18T06:33:06.053Z,249.31
2023-04-18T06:34:06.410Z,250.00
2023-04-18T06:35:06.014Z,248.07
2023-04-18T06:36:05.986Z,248.78
2023-04-18T06:37:06.021Z,250.42
2023-04-18T06:38:06.010Z,250.00
2023-04-18T06:39:06.345Z,250.00
2023-04-18T06:40:05.975Z,249.94
2023-04-18T06:41:05.976Z,249.80
2023-04-18T06:42:05.978Z,250.50
2023-04-18T06:43:05.935Z,250.00
2023-04-18T06:44:06.396Z,249.70
2023-04-18T06:45:05.950Z,249.69
2023-04-18T06:46:06.172Z,250.36
2023-04-18T06:47:05.984Z,248.52
2023-04-18T06:48:06.065Z,250.22
2023-04-18T06:49:05.926Z,250.00
2023-04-18T06:50:05.923Z,250.00
2023-04-18T06:51:05.890Z,249.30
2023-04-18T06:52:05.955Z,250.00
2023-04-18T06:53:05.860Z,250.08
2023-04-18T06:54:05.880Z,250.00
2023-04-18T06:55:05.869Z,250.00
2023-04-18T06:56:05.955Z,249.66
2023-04-18T06:57:05.990Z,250.00
2023-04-18T06:58:06.079Z,248.78
2023-04-18T06:59:06.118Z,250.00
2023-04-18T07:00:06.126Z,249.67
2023-04-18T07:01:06.269Z,250.00
2023-04-18T07:02:06.292Z,250.00
2023-04-18T07:03:07.597Z,249.28
2023-04-18T07:04:06.476Z,250.00
2023-04-18T07:05:06.402Z,249.92
2023-04-18T07:06:06.404Z,249.48
2023-04-18T07:07:06.432Z,249.38
2023-04-18T07:08:06.426Z,248.94
2023-04-18T07:09:06.926Z,250.00
2023-04-18T07:10:06.391Z,249.36
2023-04-18T07:11:06.522Z,249.50
2023-04-18T07:12:06.462Z,249.92
2023-04-18T07:13:06.379Z,249.33
2023-04-18T07:14:07.450Z,249.04
2023-04-18T07:15:06.453Z,249.60
2023-04-18T07:16:06.412Z,249.09
2023-04-18T07:17:06.556Z,249.81
2023-04-18T07:18:06.438Z,248.92
2023-04-18T07:19:06.420Z,250.29
2023-04-18T07:20:06.389Z,249.51
2023-04-18T07:21:06.436Z,249.40
2023-04-18T07:22:06.378Z,250.00
2023-04-18T07:23:06.390Z,250.00
2023-04-18T07:24:06.458Z,255.56
2023-04-18T07:25:06.397Z,250.00
2023-04-18T07:26:06.429Z,248.47
2023-04-18T07:27:06.424Z,246.10
2023-04-18T07:28:06.543Z,246.61
2023-04-18T07:29:06.443Z,247.62
2023-04-18T07:30:06.910Z,250.23
2023-04-18T07:31:06.452Z,248.31
2023-04-18T07:32:08.363Z,248.89
2023-04-18T07:33:06.493Z,250.00
2023-04-18T07:34:06.462Z,249.91
2023-04-18T07:35:06.880Z,250.00
2023-04-18T07:36:06.597Z,249.51
2023-04-18T07:37:06.695Z,248.22
2023-04-18T07:38:06.663Z,246.82
2023-04-18T07:39:06.732Z,243.70
2023-04-18T07:40:06.868Z,237.41
2023-04-18T07:41:06.860Z,236.42
2023-04-18T07:42:06.928Z,236.38
2023-04-18T07:43:06.962Z,227.06
2023-04-18T07:44:07.086Z,210.54
2023-04-18T07:45:07.096Z,195.56
2023-04-18T07:46:07.138Z,196.75
2023-04-18T07:47:07.181Z,197.19
2023-04-18T07:48:07.175Z,192.60
2023-04-18T07:49:07.171Z,184.94
2023-04-18T07:50:07.150Z,185.91
2023-04-18T07:51:07.141Z,180.72
2023-04-18T07:52:07.189Z,175.17
2023-04-18T07:53:07.155Z,170.69
2023-04-18T07:54:07.138Z,167.04
2023-04-18T07:55:07.143Z,164.93
2023-04-18T07:56:07.173Z,162.23
2023-04-18T07:57:07.143Z,157.76
2023-04-18T07:58:07.196Z,156.83
2023-04-18T07:59:07.140Z,154.58
2023-04-18T08:00:07.185Z,151.94
2023-04-18T08:01:07.163Z,144.87
2023-04-18T08:02:07.230Z,138.99
2023-04-18T08:03:07.336Z,128.48
2023-04-18T08:04:07.297Z,121.44
2023-04-18T08:05:07.273Z,123.21
2023-04-18T08:06:07.158Z,106.07
2023-04-18T08:07:07.148Z,114.34
2023-04-18T08:08:07.209Z,112.26
2023-04-18T08:09:07.193Z,111.30
2023-04-18T08:10:07.173Z,108.59
2023-04-18T08:11:07.220Z,105.55
2023-04-18T08:12:07.192Z,105.08
2023-04-18T08:13:07.212Z,102.60
2023-04-18T08:14:07.248Z,98.72
2023-04-18T08:15:07.410Z,100.24
2023-04-18T08:16:07.327Z,98.62
2023-04-18T08:17:07.217Z,98.17
2023-04-18T08:18:07.281Z,97.09
2023-04-18T08:19:07.221Z,95.95
2023-04-18T08:20:07.472Z,95.08
2023-04-18T08:21:07.241Z,93.37
2023-04-18T08:22:07.246Z,93.37
2023-04-18T08:23:10.373Z,93.71
2023-04-18T08:24:08.260Z,93.88
2023-04-18T08:25:07.225Z,94.23
2023-04-18T08:26:07.225Z,95.22
2023-04-18T08:27:07.193Z,97.62
2023-04-18T08:28:07.244Z,101.36
2023-04-18T08:29:07.204Z,105.19
2023-04-18T08:30:07.457Z,106.39
2023-04-18T08:31:07.159Z,108.03
2023-04-18T08:32:07.243Z,110.30
2023-04-18T08:33:07.244Z,111.03
2023-04-18T08:34:07.230Z,112.62
2023-04-18T08:35:07.351Z,114.07
2023-04-18T08:36:07.852Z,114.34
2023-04-18T08:37:07.232Z,114.29
2023-04-18T08:38:07.289Z,115.06
2023-04-18T08:39:07.318Z,114.83
2023-04-18T08:40:07.355Z,115.71
2023-04-18T08:41:07.328Z,115.11
2023-04-18T08:42:07.348Z,116.82
2023-04-18T08:43:07.302Z,115.11
2023-04-18T08:44:07.428Z,116.31
2023-04-18T08:45:07.428Z,115.50
2023-04-18T08:46:07.542Z,115.07
2023-04-18T08:47:07.582Z,116.09
2023-04-18T08:48:07.739Z,114.81
2023-04-18T08:49:07.899Z,114.76
2023-04-18T08:50:07.938Z,114.32
2023-04-18T08:51:07.824Z,113.59
2023-04-18T08:52:07.870Z,81.80
2023-04-18T08:53:07.880Z,2.83
2023-04-18T08:54:07.887Z,0.00
2023-04-18T08:55:07.960Z,24.07
2023-04-18T08:56:07.977Z,38.96
2023-04-18T08:57:07.996Z,56.31
2023-04-18T08:58:08.119Z,68.22
2023-04-18T08:59:08.064Z,75.39
2023-04-18T09:00:08.434Z,81.07
2023-04-18T09:01:08.163Z,80.87
2023-04-18T09:02:08.197Z,82.06
2023-04-18T09:03:08.272Z,82.53
2023-04-18T09:04:08.203Z,85.04
2023-04-18T09:05:08.461Z,84.30
2023-04-18T09:06:08.289Z,86.27
2023-04-18T09:07:08.308Z,88.44
2023-04-18T09:08:08.385Z,89.27
2023-04-18T09:09:08.398Z,90.05
2023-04-18T09:10:08.940Z,90.80
2023-04-18T09:11:08.506Z,95.20
2023-04-18T09:12:08.607Z,98.32
2023-04-18T09:13:08.639Z,94.45
2023-04-18T09:14:08.723Z,95.31
2023-04-18T09:15:08.747Z,98.63
2023-04-18T09:16:08.909Z,97.01
2023-04-18T09:17:08.867Z,97.26
2023-04-18T09:18:08.987Z,96.57
2023-04-18T09:19:09.005Z,95.95
2023-04-18T09:20:09.097Z,96.22
2023-04-18T09:21:09.115Z,98.58
2023-04-18T09:22:09.156Z,99.09
2023-04-18T09:23:09.196Z,100.01
2023-04-18T09:24:09.196Z,98.67
2023-04-18T09:25:09.210Z,99.28
2023-04-18T09:26:09.228Z,98.05
2023-04-18T09:27:09.217Z,96.63
2023-04-18T09:28:09.251Z,98.35
2023-04-18T09:29:09.297Z,97.59
2023-04-18T09:30:09.377Z,95.47
2023-04-18T09:31:09.523Z,94.87
2023-04-18T09:32:09.462Z,96.23
2023-04-18T09:33:09.579Z,95.76
2023-04-18T09:34:09.537Z,97.56
2023-04-18T09:35:09.971Z,98.70
2023-04-18T09:36:09.661Z,100.11
2023-04-18T09:37:09.773Z,99.16
2023-04-18T09:38:09.741Z,99.02
2023-04-18T09:39:09.784Z,99.85
2023-04-18T09:40:09.819Z,97.82
2023-04-18T09:41:09.866Z,99.77
2023-04-18T09:42:09.894Z,100.13
2023-04-18T09:43:09.936Z,102.83
2023-04-18T09:44:13.255Z,104.21
2023-04-18T09:45:10.431Z,104.34
2023-04-18T09:46:09.987Z,104.94
2023-04-18T09:47:09.983Z,106.31
2023-04-18T09:48:09.952Z,108.95
2023-04-18T09:49:11.124Z,112.66
2023-04-18T09:50:09.977Z,113.57
2023-04-18T09:51:09.925Z,116.63
2023-04-18T09:52:10.150Z,116.63
2023-04-18T09:53:09.949Z,117.77
2023-04-18T09:54:09.919Z,120.79
2023-04-18T09:55:09.990Z,123.79
2023-04-18T09:56:09.889Z,124.84
2023-04-18T09:57:09.905Z,126.93
2023-04-18T09:58:09.912Z,127.08
2023-04-18T09:59:09.891Z,125.44
2023-04-18T10:00:10.021Z,124.72
2023-04-18T10:01:09.878Z,122.80
2023-04-18T10:02:09.928Z,122.69
2023-04-18T10:03:10.050Z,120.93
2023-04-18T10:04:09.923Z,119.03
2023-04-18T10:05:09.937Z,118.62
2023-04-18T10:06:09.961Z,117.78
2023-04-18T10:07:09.827Z,113.31
2023-04-18T10:08:09.843Z,112.10
2023-04-18T10:09:09.796Z,111.90
2023-04-18T10:10:09.832Z,110.39
2023-04-18T10:11:09.953Z,109.41
2023-04-18T10:12:09.798Z,108.53
2023-04-18T10:13:09.770Z,104.15
2023-04-18T10:14:09.781Z,103.29
2023-04-18T10:15:09.792Z,100.79
2023-04-18T10:16:09.827Z,98.86
2023-04-18T10:17:09.764Z,97.59
2023-04-18T10:18:09.834Z,95.20
2023-04-18T10:19:09.866Z,93.50
2023-04-18T10:20:09.829Z,92.93
2023-04-18T10:21:09.822Z,91.24
2023-04-18T10:22:09.799Z,90.54
2023-04-18T10:23:09.874Z,89.77
2023-04-18T10:24:09.893Z,88.29
2023-04-18T10:25:09.836Z,86.05
2023-04-18T10:26:09.882Z,83.52
2023-04-18T10:27:09.863Z,83.63
2023-04-18T10:28:09.991Z,81.79
2023-04-18T10:29:10.024Z,80.98
2023-04-18T10:30:10.074Z,81.20
2023-04-18T10:31:10.507Z,72.87
2023-04-18T10:32:10.169Z,74.19
2023-04-18T10:33:18.426Z,76.14
2023-04-18T10:34:11.195Z,76.35
2023-04-18T10:35:10.196Z,77.37
2023-04-18T10:36:10.485Z,79.79
2023-04-18T10:37:10.143Z,84.78
2023-04-18T10:38:10.144Z,90.42
2023-04-18T10:39:10.139Z,91.67
2023-04-18T10:40:10.386Z,95.02
2023-04-18T10:41:10.475Z,98.36
2023-04-18T10:42:10.125Z,101.42
2023-04-18T10:43:10.126Z,100.29
2023-04-18T10:44:10.125Z,102.02
2023-04-18T10:45:10.114Z,103.48
2023-04-18T10:46:20.177Z,105.28
2023-04-18T10:47:11.139Z,105.53
2023-04-18T10:48:10.162Z,106.70
2023-04-18T10:49:10.088Z,109.76
2023-04-18T10:50:10.065Z,114.74
2023-04-18T10:51:10.490Z,120.97
2023-04-18T10:52:11.698Z,122.85
2023-04-18T10:53:10.070Z,124.97
2023-04-18T10:54:10.035Z,127.50
2023-04-18T10:55:10.054Z,129.27
2023-04-18T10:56:10.141Z,133.90
2023-04-18T10:57:10.062Z,134.75
2023-04-18T10:58:10.016Z,137.31
2023-04-18T10:59:10.016Z,139.25
2023-04-18T11:00:10.024Z,139.79
2023-04-18T11:01:10.095Z,141.11
2023-04-18T11:02:10.031Z,140.97
2023-04-18T11:03:10.214Z,143.07
2023-04-18T11:04:10.101Z,143.81
2023-04-18T11:05:10.048Z,143.72
2023-04-18T11:06:10.000Z,144.87
2023-04-18T11:07:09.978Z,149.45
2023-04-18T11:08:09.950Z,150.43
2023-04-18T11:09:09.968Z,150.76
2023-04-18T11:10:09.965Z,149.66
2023-04-18T11:11:10.011Z,151.03
2023-04-18T11:12:09.983Z,150.36
2023-04-18T11:13:09.914Z,154.76
2023-04-18T11:14:09.978Z,155.74
2023-04-18T11:15:09.915Z,157.20
2023-04-18T11:16:09.945Z,158.11
2023-04-18T11:17:09.871Z,159.83
2023-04-18T11:18:09.979Z,160.49
2023-04-18T11:19:09.885Z,163.51
2023-04-18T11:20:09.881Z,164.06
2023-04-18T11:21:10.015Z,165.57
2023-04-18T11:22:09.892Z,165.77
2023-04-18T11:23:09.887Z,164.80
2023-04-18T11:24:09.819Z,166.27
2023-04-18T11:25:09.831Z,165.80
2023-04-18T11:26:10.069Z,161.19
2023-04-18T11:27:09.824Z,159.37
2023-04-18T11:28:09.824Z,158.50
2023-04-18T11:29:09.808Z,153.30
2023-04-18T11:30:09.842Z,149.24
2023-04-18T11:31:10.014Z,160.16
2023-04-18T11:32:09.850Z,173.45
2023-04-18T11:33:09.827Z,171.91
2023-04-18T11:34:09.778Z,176.00
2023-04-18T11:35:09.769Z,177.22
2023-04-18T11:36:10.018Z,178.24
2023-04-18T11:37:09.778Z,181.36
2023-04-18T11:38:09.803Z,183.07
2023-04-18T11:39:09.747Z,185.62
2023-04-18T11:40:09.764Z,185.38
2023-04-18T11:41:09.769Z,186.38
2023-04-18T11:42:09.800Z,187.06
2023-04-18T11:43:09.731Z,188.11
2023-04-18T11:44:09.723Z,187.40
2023-04-18T11:45:09.699Z,189.91
2023-04-18T11:46:09.747Z,188.40
2023-04-18T11:47:09.673Z,188.95
2023-04-18T11:48:09.782Z,190.37
2023-04-18T11:49:09.669Z,189.77
2023-04-18T11:50:09.665Z,189.97
2023-04-18T11:51:09.678Z,189.49
2023-04-18T11:52:09.660Z,190.19
2023-04-18T11:53:09.617Z,190.13
2023-04-18T11:54:09.638Z,190.58
2023-04-18T11:55:09.626Z,190.42
2023-04-18T11:56:09.624Z,190.04
2023-04-18T11:57:09.814Z,190.13
2023-04-18T11:58:09.620Z,189.60
2023-04-18T11:59:09.636Z,189.83
2023-04-18T12:00:09.598Z,188.76
2023-04-18T12:01:09.605Z,188.69
2023-04-18T12:02:16.012Z,188.49
2023-04-18T12:03:13.337Z,188.57
2023-04-18T12:04:09.756Z,188.59
2023-04-18T12:05:09.607Z,188.40
2023-04-18T12:06:09.641Z,184.73
2023-04-18T12:07:09.580Z,183.55
2023-04-18T12:08:09.562Z,183.35
2023-04-18T12:09:09.518Z,180.26
2023-04-18T12:10:09.534Z,181.94
2023-04-18T12:11:09.536Z,179.44
2023-04-18T12:12:09.516Z,179.51
2023-04-18T12:13:09.518Z,178.81
2023-04-18T12:14:09.498Z,179.17
2023-04-18T12:15:09.518Z,179.87
2023-04-18T12:16:09.548Z,178.98
2023-04-18T12:17:09.486Z,177.10
2023-04-18T12:18:09.565Z,177.76
2023-04-18T12:19:09.459Z,177.73
2023-04-18T12:20:09.465Z,177.60
2023-04-18T12:21:09.425Z,177.40
2023-04-18T12:22:09.456Z,177.98
2023-04-18T12:23:09.406Z,175.44
2023-04-18T12:24:09.442Z,175.00
2023-04-18T12:25:09.429Z,175.74
2023-04-18T12:26:09.463Z,173.37
2023-04-18T12:27:09.566Z,174.11
2023-04-18T12:28:09.549Z,173.86
2023-04-18T12:29:09.591Z,173.51
2023-04-18T12:30:09.679Z,171.94
2023-04-18T12:31:09.750Z,171.26
2023-04-18T12:32:10.078Z,174.80
2023-04-18T12:33:09.822Z,175.78
2023-04-18T12:34:09.828Z,172.53
2023-04-18T12:35:09.864Z,175.14
2023-04-18T12:36:09.949Z,178.91
2023-04-18T12:37:09.980Z,180.09
2023-04-18T12:38:09.986Z,182.41
2023-04-18T12:39:10.068Z,188.21
2023-04-18T12:40:10.141Z,189.18
2023-04-18T12:41:10.142Z,190.67
2023-04-18T12:42:10.219Z,192.24
2023-04-18T12:43:10.236Z,199.65